Time;durP1;ratioP1;P1;durP2;ratioP2;P2;SDS_P1;SDS_P2;PMS_P1;PMS_P2;Temp;Humidity;BMP_temperature;BMP_pressure;BME280_temperature;BME280_humidity;BME280_pressure;Samples;Min_cycle;Max_cycle;Signal;HPM_P1;HPM_P2
2023/03/30 00:00:19;;;;;;;3.70;1.87;;;;;;;;;;5091056;28;20203;-79
2023/03/30 00:02:47;;;;;;;1.90;1.80;;;;;;;;;;5107391;28;20196;-79
2023/03/30 00:05:15;;;;;;;1.80;1.70;;;;;;;;;;5100770;28;20692;-79
2023/03/30 00:07:43;;;;;;;2.40;2.20;;;;;;;;;;5104285;28;20275;-80
2023/03/30 00:10:11;;;;;;;1.80;1.70;;;;;;;;;;5090983;28;20201;-80
2023/03/30 00:12:39;;;;;;;2.50;2.27;;;;;;;;;;5108427;28;20245;-80
2023/03/30 00:15:08;;;;;;;2.07;1.50;;;;;;;;;;5110963;28;20669;-80
2023/03/30 00:17:35;;;;;;;1.80;1.70;;;;;;;;;;5092489;28;20605;-80
2023/03/30 00:20:04;;;;;;;3.27;2.17;;;;;;;;;;5102045;28;20207;-80
2023/03/30 00:22:31;;;;;;;2.00;1.80;;;;;;;;;;5110711;28;20238;-80
2023/03/30 00:24:58;;;;;;;1.73;1.50;;;;;;;;;;5110944;28;20195;-80
2023/03/30 00:27:25;;;;;;;3.33;2.13;;;;;;;;;;5097210;28;20280;-79
2023/03/30 00:29:53;;;;;;;2.20;2.00;;;;;;;;;;5111019;28;20709;-79
2023/03/30 00:32:20;;;;;;;3.30;2.00;;;;;;;;;;5096890;28;20199;-79
2023/03/30 00:34:46;;;;;;;3.80;2.33;;;;;;;;;;5098465;28;20200;-79
2023/03/30 00:37:14;;;;;;;3.27;2.37;;;;;;;;;;5090284;28;20216;-79
2023/03/30 00:39:40;;;;;;;2.97;2.47;;;;;;;;;;5090606;28;20230;-79
2023/03/30 00:42:10;;;;;;;2.70;2.20;;;;;;;;;;5103531;28;20203;-79
2023/03/30 00:45:16;;;;;;;3.33;2.17;;;;;;;;;;5104071;28;20200;-79
2023/03/30 00:47:46;;;;;;;4.63;2.60;;;;;;;;;;5110985;28;20235;-78
2023/03/30 00:50:15;;;;;;;5.60;1.80;;;;;;;;;;5110822;28;20283;-79
2023/03/30 00:52:43;;;;;;;6.97;2.33;;;;;;;;;;5110648;28;20199;-78
2023/03/30 00:55:10;;;;;;;4.13;2.17;;;;;;;;;;5090230;28;20200;-78
2023/03/30 00:57:39;;;;;;;3.83;2.03;;;;;;;;;;5090599;28;20664;-78
2023/03/30 01:00:10;;;;;;;2.57;2.30;;;;;;;;;;5110769;28;20199;-78
2023/03/30 01:02:41;;;;;;;3.37;2.43;;;;;;;;;;5110648;28;20203;-77
2023/03/30 01:05:11;;;;;;;2.73;2.47;;;;;;;;;;5110585;28;20192;-77
2023/03/30 01:07:39;;;;;;;3.23;2.20;;;;;;;;;;5093330;28;20235;-77
2023/03/30 01:10:07;;;;;;;2.67;2.10;;;;;;;;;;5089745;28;20208;-77
2023/03/30 01:12:35;;;;;;;3.07;2.30;;;;;;;;;;5093037;28;20200;-77
2023/03/30 01:15:02;;;;;;;5.53;2.93;;;;;;;;;;5110841;28;20208;-77
2023/03/30 01:17:32;;;;;;;3.03;2.47;;;;;;;;;;5096452;28;20631;-77
2023/03/30 01:20:29;;;;;;;3.97;2.10;;;;;;;;;;5099078;28;20285;-77
2023/03/30 01:23:09;;;;;;;5.33;2.80;;;;;;;;;;5090364;28;20607;-78
2023/03/30 01:26:10;;;;;;;3.90;2.13;;;;;;;;;;5092466;28;20234;-78
2023/03/30 01:28:42;;;;;;;7.63;3.33;;;;;;;;;;5103636;28;20200;-77
2023/03/30 01:31:29;;;;;;;5.73;3.57;;;;;;;;;;5089653;28;20307;-77
2023/03/30 01:34:13;;;;;;;6.00;4.23;;;;;;;;;;5107018;28;20254;-77
2023/03/30 01:36:51;;;;;;;6.63;4.17;;;;;;;;;;5093331;28;20622;-77
2023/03/30 01:39:40;;;;;;;5.70;4.20;;;;;;;;;;5104046;28;20644;-77
2023/03/30 01:42:16;;;;;;;13.23;5.03;;;;;;;;;;5106496;28;20632;-77
2023/03/30 01:44:49;;;;;;;8.27;5.30;;;;;;;;;;5095052;28;20763;-77
2023/03/30 01:47:19;;;;;;;8.87;5.43;;;;;;;;;;5104071;28;20200;-78
2023/03/30 01:49:54;;;;;;;10.87;5.83;;;;;;;;;;5106908;28;20555;-78
2023/03/30 01:52:24;;;;;;;9.70;4.97;;;;;;;;;;5093092;28;20199;-78
2023/03/30 01:54:58;;;;;;;8.27;5.13;;;;;;;;;;5106859;28;20204;-78
2023/03/30 01:57:29;;;;;;;7.37;4.70;;;;;;;;;;5093045;28;20669;-78
2023/03/30 01:59:58;;;;;;;9.43;5.03;;;;;;;;;;5093035;28;20200;-78
2023/03/30 02:02:27;;;;;;;9.53;5.87;;;;;;;;;;5092914;28;20211;-78
2023/03/30 02:04:56;;;;;;;5.87;4.10;;;;;;;;;;5102050;28;20203;-78
2023/03/30 02:07:25;;;;;;;6.47;3.80;;;;;;;;;;5099435;28;20224;-78
2023/03/30 02:09:56;;;;;;;10.70;4.40;;;;;;;;;;5104325;28;20683;-78
2023/03/30 02:12:23;;;;;;;8.73;4.57;;;;;;;;;;5093882;28;20743;-78
2023/03/30 02:14:51;;;;;;;12.03;4.57;;;;;;;;;;5101798;28;20215;-78
2023/03/30 02:17:21;;;;;;;7.00;3.20;;;;;;;;;;5110538;28;20670;-78
2023/03/30 02:19:49;;;;;;;6.80;4.00;;;;;;;;;;5093186;28;20204;-79
2023/03/30 02:22:17;;;;;;;6.27;3.93;;;;;;;;;;5106273;28;20197;-79
2023/03/30 02:24:45;;;;;;;8.17;4.37;;;;;;;;;;5093155;28;20199;-79
2023/03/30 02:27:13;;;;;;;9.90;5.30;;;;;;;;;;5092521;28;20192;-79
2023/03/30 02:29:43;;;;;;;6.73;4.43;;;;;;;;;;5092591;28;20204;-79
2023/03/30 02:32:16;;;;;;;8.10;4.43;;;;;;;;;;5110421;28;20249;-79
2023/03/30 02:34:57;;;;;;;7.53;4.80;;;;;;;;;;5100674;28;20204;-79
2023/03/30 02:37:37;;;;;;;8.47;4.23;;;;;;;;;;5100229;28;20593;-79
2023/03/30 02:40:16;;;;;;;10.03;4.17;;;;;;;;;;5095982;28;20215;-79
2023/03/30 02:42:54;;;;;;;10.10;4.70;;;;;;;;;;5092124;28;20638;-79
2023/03/30 02:45:30;;;;;;;8.03;4.47;;;;;;;;;;5098734;28;20221;-80
2023/03/30 02:48:07;;;;;;;5.53;3.97;;;;;;;;;;5099104;28;20324;-79
2023/03/30 02:50:38;;;;;;;6.00;3.57;;;;;;;;;;5102886;28;20210;-79
2023/03/30 02:53:12;;;;;;;4.80;3.50;;;;;;;;;;5092119;28;20196;-80
2023/03/30 02:55:40;;;;;;;4.43;3.30;;;;;;;;;;5092013;28;20204;-80
2023/03/30 02:58:14;;;;;;;5.27;3.50;;;;;;;;;;5091662;28;20220;-80
2023/03/30 03:00:44;;;;;;;4.47;3.63;;;;;;;;;;5092075;28;20204;-81
2023/03/30 03:03:17;;;;;;;4.77;3.00;;;;;;;;;;5105298;28;20197;-80
2023/03/30 03:05:44;;;;;;;6.53;3.13;;;;;;;;;;5105314;28;20219;-81
2023/03/30 03:08:14;;;;;;;4.50;2.63;;;;;;;;;;5091546;28;20601;-81
2023/03/30 03:10:41;;;;;;;3.87;2.90;;;;;;;;;;5092692;28;20284;-81
2023/03/30 03:13:10;;;;;;;3.70;3.27;;;;;;;;;;5091919;28;20211;-81
2023/03/30 03:15:37;;;;;;;4.63;2.53;;;;;;;;;;5091686;28;20215;-81
2023/03/30 03:18:04;;;;;;;3.23;2.80;;;;;;;;;;5091506;28;20789;-81
2023/03/30 03:20:31;;;;;;;5.20;3.10;;;;;;;;;;5105128;28;20282;-83
2023/03/30 03:22:58;;;;;;;3.97;2.93;;;;;;;;;;5100928;28;20299;-81
2023/03/30 03:25:25;;;;;;;2.97;2.73;;;;;;;;;;5097565;28;20204;-80
2023/03/30 03:27:51;;;;;;;4.47;3.00;;;;;;;;;;5102547;28;20287;-81
2023/03/30 03:30:19;;;;;;;4.63;3.30;;;;;;;;;;5107823;28;20199;-81
2023/03/30 03:32:46;;;;;;;2.80;2.53;;;;;;;;;;5112115;28;20199;-81
2023/03/30 03:35:13;;;;;;;4.03;2.83;;;;;;;;;;5097525;28;20196;-81
2023/03/30 03:37:40;;;;;;;4.17;3.67;;;;;;;;;;5111513;28;20199;-81
2023/03/30 03:40:08;;;;;;;3.00;2.70;;;;;;;;;;5094431;28;20224;-81
2023/03/30 03:42:34;;;;;;;8.67;2.97;;;;;;;;;;5101487;28;20238;-81
2023/03/30 03:45:01;;;;;;;5.60;2.73;;;;;;;;;;5097801;28;20199;-81
2023/03/30 03:47:31;;;;;;;2.67;2.47;;;;;;;;;;5100030;28;20204;-81
2023/03/30 03:50:02;;;;;;;2.70;2.50;;;;;;;;;;5105219;28;20224;-80
2023/03/30 03:52:28;;;;;;;3.73;2.40;;;;;;;;;;5090969;28;20204;-81
2023/03/30 03:54:55;;;;;;;3.43;3.10;;;;;;;;;;5094889;28;20207;-78
2023/03/30 03:57:22;;;;;;;3.40;2.57;;;;;;;;;;5101182;28;20208;-78
2023/03/30 03:59:50;;;;;;;2.57;2.23;;;;;;;;;;5107000;28;20223;-79
2023/03/30 04:02:16;;;;;;;2.57;2.30;;;;;;;;;;5101361;28;20203;-80
2023/03/30 04:04:44;;;;;;;3.13;2.90;;;;;;;;;;5104488;28;20204;-79
2023/03/30 04:07:12;;;;;;;4.80;3.63;;;;;;;;;;5101268;28;20227;-79
2023/03/30 04:09:38;;;;;;;12.13;7.23;;;;;;;;;;5107280;28;20192;-79
2023/03/30 04:12:07;;;;;;;10.57;5.93;;;;;;;;;;5090789;28;20196;-80
2023/03/30 04:14:34;;;;;;;6.13;3.63;;;;;;;;;;5104507;28;20253;-80
2023/03/30 04:17:01;;;;;;;3.47;2.10;;;;;;;;;;5104300;28;20196;-79
2023/03/30 04:19:30;;;;;;;2.67;2.23;;;;;;;;;;5097541;28;20219;-79
2023/03/30 04:21:58;;;;;;;3.87;2.20;;;;;;;;;;5096642;28;20212;-79
2023/03/30 04:24:26;;;;;;;1.90;1.80;;;;;;;;;;5090785;28;20202;-79
2023/03/30 04:26:53;;;;;;;4.17;3.07;;;;;;;;;;5090430;28;20300;-79
2023/03/30 04:29:20;;;;;;;5.40;4.10;;;;;;;;;;5098789;28;20199;-79
2023/03/30 04:31:49;;;;;;;3.00;2.53;;;;;;;;;;5096919;28;20257;-79
2023/03/30 04:34:20;;;;;;;2.90;2.57;;;;;;;;;;5101870;28;20674;-79
2023/03/30 04:36:47;;;;;;;3.17;2.87;;;;;;;;;;5090359;28;20222;-79
2023/03/30 04:39:17;;;;;;;6.73;3.23;;;;;;;;;;5100206;28;20223;-79
2023/03/30 04:41:44;;;;;;;2.83;2.30;;;;;;;;;;5096917;28;20228;-79
2023/03/30 04:44:12;;;;;;;2.70;2.43;;;;;;;;;;5110674;28;20203;-79
2023/03/30 04:46:38;;;;;;;3.70;2.13;;;;;;;;;;5092728;28;20193;-79
2023/03/30 04:49:05;;;;;;;4.30;2.47;;;;;;;;;;5101425;28;20203;-81
2023/03/30 04:51:32;;;;;;;3.47;2.13;;;;;;;;;;5096970;28;20203;-79
2023/03/30 04:53:59;;;;;;;2.20;1.70;;;;;;;;;;5110835;28;20210;-79
2023/03/30 04:56:27;;;;;;;4.63;1.90;;;;;;;;;;5093129;28;20575;-79
2023/03/30 04:58:54;;;;;;;6.93;5.73;;;;;;;;;;5102018;28;20219;-79
2023/03/30 05:01:21;;;;;;;9.13;6.50;;;;;;;;;;5092147;28;20250;-79
2023/03/30 05:03:48;;;;;;;8.13;6.73;;;;;;;;;;5090281;28;20200;-78
2023/03/30 05:06:15;;;;;;;14.60;10.40;;;;;;;;;;5095300;28;20196;-79
2023/03/30 05:08:42;;;;;;;36.80;23.13;;;;;;;;;;5102280;28;20236;-78
2023/03/30 05:11:08;;;;;;;15.90;9.13;;;;;;;;;;5107698;28;20545;-79
2023/03/30 05:13:37;;;;;;;9.43;7.33;;;;;;;;;;5094021;28;20261;-79
2023/03/30 05:16:04;;;;;;;9.03;7.07;;;;;;;;;;5093916;28;20200;-79
2023/03/30 05:18:30;;;;;;;10.43;7.50;;;;;;;;;;5106597;28;20230;-78
2023/03/30 05:20:58;;;;;;;10.83;8.50;;;;;;;;;;5108463;28;20209;-79
2023/03/30 05:23:25;;;;;;;12.13;8.30;;;;;;;;;;5093708;28;20223;-78
2023/03/30 05:25:55;;;;;;;20.27;10.27;;;;;;;;;;5093834;28;20205;-78
2023/03/30 05:28:22;;;;;;;32.40;17.73;;;;;;;;;;5094037;28;20231;-77
2023/03/30 05:30:54;;;;;;;58.77;26.33;;;;;;;;;;5093162;28;20216;-78
2023/03/30 05:33:22;;;;;;;32.13;17.67;;;;;;;;;;5107595;28;20203;-78
2023/03/30 05:35:49;;;;;;;12.40;6.97;;;;;;;;;;5093551;28;20632;-78
2023/03/30 05:38:16;;;;;;;10.33;6.27;;;;;;;;;;5108280;28;20206;-78
2023/03/30 05:40:43;;;;;;;6.83;5.07;;;;;;;;;;5113381;28;20674;-79
2023/03/30 05:43:10;;;;;;;10.67;5.00;;;;;;;;;;5112290;28;20687;-80
2023/03/30 05:45:37;;;;;;;12.57;5.07;;;;;;;;;;5093559;28;20200;-80
2023/03/30 05:48:06;;;;;;;8.40;4.60;;;;;;;;;;5095573;28;20624;-80
2023/03/30 05:50:33;;;;;;;5.97;4.73;;;;;;;;;;5104396;28;20766;-80
2023/03/30 05:52:59;;;;;;;6.43;4.00;;;;;;;;;;5109075;28;20268;-80
2023/03/30 05:55:26;;;;;;;6.80;4.27;;;;;;;;;;5113952;28;20195;-80
2023/03/30 05:57:53;;;;;;;5.17;2.73;;;;;;;;;;5113045;28;20778;-80
2023/03/30 06:00:22;;;;;;;4.13;3.70;;;;;;;;;;5113222;28;20284;-80
2023/03/30 06:02:50;;;;;;;4.50;3.03;;;;;;;;;;5099320;28;20245;-79
2023/03/30 06:05:18;;;;;;;3.53;2.63;;;;;;;;;;5103412;28;20284;-79
2023/03/30 06:07:46;;;;;;;6.10;4.10;;;;;;;;;;5093044;28;20234;-79
2023/03/30 06:10:12;;;;;;;6.77;3.20;;;;;;;;;;5103985;28;20200;-79
2023/03/30 06:12:39;;;;;;;5.10;4.17;;;;;;;;;;5113342;28;20286;-79
2023/03/30 06:15:07;;;;;;;5.37;3.23;;;;;;;;;;5113013;28;20302;-79
2023/03/30 06:17:34;;;;;;;9.30;5.83;;;;;;;;;;5094447;28;20204;-79
2023/03/30 06:20:07;;;;;;;8.37;5.97;;;;;;;;;;5104483;28;20689;-78
2023/03/30 06:22:35;;;;;;;10.83;7.80;;;;;;;;;;5093942;28;20642;-79
2023/03/30 06:25:02;;;;;;;7.93;5.20;;;;;;;;;;5092672;28;20235;-79
2023/03/30 06:27:30;;;;;;;10.33;7.33;;;;;;;;;;5112135;28;20203;-79
2023/03/30 06:29:57;;;;;;;5.70;4.43;;;;;;;;;;5099757;28;20208;-79
2023/03/30 06:32:24;;;;;;;7.53;5.17;;;;;;;;;;5112254;28;20298;-79
2023/03/30 06:34:51;;;;;;;9.07;6.07;;;;;;;;;;5099465;28;20211;-80
2023/03/30 06:37:18;;;;;;;7.17;4.10;;;;;;;;;;5098774;28;20686;-80
2023/03/30 06:39:46;;;;;;;6.70;6.00;;;;;;;;;;5098879;28;20880;-80
2023/03/30 06:42:13;;;;;;;6.53;5.23;;;;;;;;;;5105187;28;20728;-80
2023/03/30 06:44:40;;;;;;;3.97;3.50;;;;;;;;;;5105872;28;20206;-80
2023/03/30 06:47:06;;;;;;;3.77;3.43;;;;;;;;;;5098882;28;20206;-79
2023/03/30 06:49:33;;;;;;;4.97;3.90;;;;;;;;;;5111827;28;20234;-79
2023/03/30 06:52:00;;;;;;;6.30;3.80;;;;;;;;;;5099755;28;20207;-79
2023/03/30 06:54:27;;;;;;;4.47;3.57;;;;;;;;;;5112329;28;20203;-79
2023/03/30 06:56:55;;;;;;;3.00;2.67;;;;;;;;;;5112304;28;20218;-79
2023/03/30 06:59:22;;;;;;;3.20;2.63;;;;;;;;;;5098143;28;20641;-80
2023/03/30 07:01:49;;;;;;;3.73;3.07;;;;;;;;;;5103816;28;20200;-79
2023/03/30 07:04:15;;;;;;;3.63;3.07;;;;;;;;;;5093347;28;20239;-79
2023/03/30 07:06:42;;;;;;;3.30;2.20;;;;;;;;;;5103217;28;20207;-79
2023/03/30 07:09:09;;;;;;;3.63;2.33;;;;;;;;;;5092154;28;20281;-78
2023/03/30 07:11:36;;;;;;;3.10;2.20;;;;;;;;;;5092000;28;20208;-78
2023/03/30 07:14:04;;;;;;;2.33;2.13;;;;;;;;;;5107366;28;20207;-78
2023/03/30 07:16:32;;;;;;;4.00;2.30;;;;;;;;;;5111251;28;20693;-79
2023/03/30 07:18:58;;;;;;;2.93;2.23;;;;;;;;;;5097996;28;20273;-77
2023/03/30 07:21:25;;;;;;;2.50;1.87;;;;;;;;;;5111651;28;20682;-77
2023/03/30 07:23:52;;;;;;;2.40;2.10;;;;;;;;;;5097787;28;20204;-78
2023/03/30 07:26:19;;;;;;;2.50;1.60;;;;;;;;;;5102417;28;20682;-78
2023/03/30 07:28:45;;;;;;;3.50;1.80;;;;;;;;;;5091217;28;20645;-78
2023/03/30 07:31:15;;;;;;;2.43;2.27;;;;;;;;;;5090539;28;20205;-78
2023/03/30 07:33:43;;;;;;;2.03;1.63;;;;;;;;;;5094577;28;20203;-78
2023/03/30 07:36:10;;;;;;;2.43;1.70;;;;;;;;;;5100985;28;20283;-77
2023/03/30 07:38:37;;;;;;;10.73;6.07;;;;;;;;;;5104539;28;20739;-77
2023/03/30 07:41:07;;;;;;;5.00;3.40;;;;;;;;;;5102124;28;20250;-77
2023/03/30 07:43:34;;;;;;;2.60;1.90;;;;;;;;;;5093062;28;20283;-77
2023/03/30 07:46:01;;;;;;;1.90;1.80;;;;;;;;;;5091175;28;20204;-77
2023/03/30 07:48:29;;;;;;;3.87;2.93;;;;;;;;;;5095848;28;20336;-77
2023/03/30 07:51:01;;;;;;;2.00;1.80;;;;;;;;;;5098927;28;20645;-77
2023/03/30 07:53:27;;;;;;;2.83;2.03;;;;;;;;;;5097014;28;20196;-77
2023/03/30 07:55:54;;;;;;;4.20;2.30;;;;;;;;;;5098410;28;20215;-77
2023/03/30 07:58:21;;;;;;;2.33;2.00;;;;;;;;;;5090638;28;20262;-78
2023/03/30 08:00:52;;;;;;;1.50;1.40;;;;;;;;;;5090920;28;20234;-78
2023/03/30 08:03:22;;;;;;;2.20;1.60;;;;;;;;;;5098230;28;20196;-78
2023/03/30 08:05:54;;;;;;;1.47;1.37;;;;;;;;;;5097816;28;20208;-78
2023/03/30 08:08:21;;;;;;;1.50;1.40;;;;;;;;;;5102438;28;20394;-78
2023/03/30 08:10:48;;;;;;;1.63;1.53;;;;;;;;;;5090978;28;20645;-78
2023/03/30 08:13:14;;;;;;;1.70;1.60;;;;;;;;;;5090271;28;20200;-79
2023/03/30 08:15:41;;;;;;;2.13;1.60;;;;;;;;;;5106149;28;20252;-77
2023/03/30 08:18:08;;;;;;;2.27;1.60;;;;;;;;;;5110949;28;20283;-79
2023/03/30 08:20:37;;;;;;;2.07;1.40;;;;;;;;;;5107688;28;20270;-78
2023/03/30 08:23:05;;;;;;;2.97;2.27;;;;;;;;;;5100699;28;20203;-78
2023/03/30 08:25:32;;;;;;;1.47;1.37;;;;;;;;;;5107022;28;20720;-78
2023/03/30 08:27:59;;;;;;;2.17;1.57;;;;;;;;;;5090980;28;20200;-78
2023/03/30 08:30:27;;;;;;;1.50;1.40;;;;;;;;;;5090598;28;20207;-78
2023/03/30 08:32:54;;;;;;;1.83;1.70;;;;;;;;;;5090723;28;20257;-78
2023/03/30 08:35:22;;;;;;;1.50;1.40;;;;;;;;;;5090838;28;20203;-78
2023/03/30 08:37:49;;;;;;;3.47;2.20;;;;;;;;;;5090025;28;20337;-78
2023/03/30 08:40:17;;;;;;;1.20;1.10;;;;;;;;;;5094983;28;20713;-78
2023/03/30 08:43:11;;;;;;;2.13;1.00;;;;;;;;;;5102976;28;20626;-78
2023/03/30 08:45:40;;;;;;;3.47;1.40;;;;;;;;;;5084069;28;20201;-78
2023/03/30 08:48:12;;;;;;;1.20;1.10;;;;;;;;;;5097762;28;20280;-78
2023/03/30 08:50:39;;;;;;;1.50;1.23;;;;;;;;;;5103797;28;20269;-78
2023/03/30 08:53:07;;;;;;;1.20;1.20;;;;;;;;;;5107908;28;20201;-78
2023/03/30 08:55:40;;;;;;;1.83;1.73;;;;;;;;;;5094385;28;20208;-78
2023/03/30 08:58:12;;;;;;;2.10;1.50;;;;;;;;;;5094140;28;20311;-78
2023/03/30 09:00:42;;;;;;;1.80;1.67;;;;;;;;;;5107312;28;20223;-78
2023/03/30 09:03:16;;;;;;;1.37;1.27;;;;;;;;;;5094201;28;20211;-78
2023/03/30 09:05:46;;;;;;;1.80;1.43;;;;;;;;;;5108225;28;20207;-77
2023/03/30 09:08:18;;;;;;;1.77;1.20;;;;;;;;;;5103079;28;20230;-79
2023/03/30 09:10:51;;;;;;;1.20;1.20;;;;;;;;;;5111173;28;20200;-79
2023/03/30 09:13:20;;;;;;;1.47;1.37;;;;;;;;;;5103930;28;20227;-78
2023/03/30 09:15:51;;;;;;;2.20;1.67;;;;;;;;;;5111281;28;20201;-79
2023/03/30 09:18:22;;;;;;;1.83;1.67;;;;;;;;;;5093723;28;20200;-77
2023/03/30 09:20:51;;;;;;;3.10;2.40;;;;;;;;;;5093868;28;20331;-78
2023/03/30 09:23:18;;;;;;;1.43;1.33;;;;;;;;;;5105637;28;20207;-78
2023/03/30 09:25:52;;;;;;;2.87;2.20;;;;;;;;;;5094831;28;20201;-79
2023/03/30 09:28:22;;;;;;;2.40;2.20;;;;;;;;;;5106643;28;20253;-79
2023/03/30 09:30:52;;;;;;;1.60;1.50;;;;;;;;;;5093455;28;20222;-78
2023/03/30 09:33:31;;;;;;;1.73;1.63;;;;;;;;;;5107144;28;20677;-78
2023/03/30 09:36:10;;;;;;;8.83;5.83;;;;;;;;;;5103376;28;20197;-78
2023/03/30 09:38:40;;;;;;;2.93;2.03;;;;;;;;;;5095977;28;20223;-78
2023/03/30 09:41:20;;;;;;;1.30;1.20;;;;;;;;;;5093107;28;20227;-78
2023/03/30 09:43:47;;;;;;;1.50;1.40;;;;;;;;;;5100510;28;20199;-78
2023/03/30 09:46:15;;;;;;;1.53;1.20;;;;;;;;;;5113532;28;20200;-79
2023/03/30 09:48:43;;;;;;;3.00;2.13;;;;;;;;;;5106476;28;20253;-78
2023/03/30 09:51:19;;;;;;;2.80;1.40;;;;;;;;;;5093669;28;20197;-78
2023/03/30 09:53:48;;;;;;;1.33;1.23;;;;;;;;;;5102072;28;20199;-78
2023/03/30 09:56:21;;;;;;;1.77;1.67;;;;;;;;;;5096979;28;20287;-78
2023/03/30 09:58:48;;;;;;;2.73;1.67;;;;;;;;;;5093766;28;20292;-78
2023/03/30 10:01:17;;;;;;;1.23;1.13;;;;;;;;;;5097358;28;20231;-81
2023/03/30 10:03:45;;;;;;;1.07;1.00;;;;;;;;;;5102247;28;20207;-78
2023/03/30 10:06:16;;;;;;;3.93;1.80;;;;;;;;;;5098112;28;20199;-78
2023/03/30 10:08:43;;;;;;;14.73;5.20;;;;;;;;;;5114001;28;20226;-78
2023/03/30 10:11:10;;;;;;;1.37;1.27;;;;;;;;;;5099137;28;20252;-78
2023/03/30 10:13:41;;;;;;;12.87;9.83;;;;;;;;;;5113430;28;20629;-78
2023/03/30 10:16:11;;;;;;;3.40;1.93;;;;;;;;;;5107109;28;20204;-78
2023/03/30 10:18:41;;;;;;;2.30;1.10;;;;;;;;;;5106560;28;20215;-78
2023/03/30 10:21:17;;;;;;;1.73;1.30;;;;;;;;;;5092989;28;20265;-78
2023/03/30 10:23:46;;;;;;;2.87;2.30;;;;;;;;;;5092527;28;20203;-79
2023/03/30 10:26:17;;;;;;;3.23;2.67;;;;;;;;;;5092808;28;20204;-78
2023/03/30 10:28:53;;;;;;;1.13;1.10;;;;;;;;;;5093439;28;20647;-78
2023/03/30 10:31:20;;;;;;;2.27;1.30;;;;;;;;;;5103883;28;20206;-78
2023/03/30 10:33:48;;;;;;;1.30;1.20;;;;;;;;;;5098919;28;20205;-79
2023/03/30 10:36:16;;;;;;;2.60;1.50;;;;;;;;;;5101272;28;20222;-78
2023/03/30 10:38:43;;;;;;;1.60;1.40;;;;;;;;;;5106337;28;20200;-78
2023/03/30 10:41:13;;;;;;;1.33;1.23;;;;;;;;;;5092217;28;20228;-78
2023/03/30 10:43:40;;;;;;;1.00;1.00;;;;;;;;;;5092746;28;20253;-78
2023/03/30 10:46:12;;;;;;;2.33;1.90;;;;;;;;;;5092264;28;20633;-78
2023/03/30 10:48:54;;;;;;;1.47;1.30;;;;;;;;;;5099059;28;20241;-78
2023/03/30 10:51:27;;;;;;;1.40;1.30;;;;;;;;;;5096495;28;20204;-78
2023/03/30 10:53:58;;;;;;;1.23;1.20;;;;;;;;;;5092744;28;20204;-78
2023/03/30 10:56:30;;;;;;;1.13;1.13;;;;;;;;;;5092172;28;20250;-77
2023/03/30 10:59:07;;;;;;;3.10;1.47;;;;;;;;;;5091826;28;20265;-78
2023/03/30 11:01:42;;;;;;;1.50;1.40;;;;;;;;;;5098469;28;20253;-78
2023/03/30 11:04:12;;;;;;;1.40;1.30;;;;;;;;;;5097829;28;20208;-78
2023/03/30 11:06:41;;;;;;;1.23;1.13;;;;;;;;;;5092055;28;20200;-78
2023/03/30 11:09:11;;;;;;;2.30;1.70;;;;;;;;;;5091361;28;20228;-76
2023/03/30 11:11:41;;;;;;;2.50;1.67;;;;;;;;;;5091541;28;20215;-76
2023/03/30 11:14:10;;;;;;;1.60;1.50;;;;;;;;;;5094244;28;20302;-76
2023/03/30 11:16:46;;;;;;;1.23;1.13;;;;;;;;;;5102186;28;20204;-76
2023/03/30 11:19:16;;;;;;;1.50;1.40;;;;;;;;;;5109639;28;20669;-77
2023/03/30 11:21:46;;;;;;;1.90;1.77;;;;;;;;;;5099942;28;20654;-76
2023/03/30 11:24:17;;;;;;;1.30;1.20;;;;;;;;;;5091506;28;20196;-77
2023/03/30 11:26:47;;;;;;;2.37;1.50;;;;;;;;;;5091627;28;20216;-77
2023/03/30 11:29:25;;;;;;;1.03;1.03;;;;;;;;;;5091319;28;20208;-77
2023/03/30 11:32:01;;;;;;;4.43;1.80;;;;;;;;;;5093327;28;20641;-77
2023/03/30 11:34:32;;;;;;;3.67;1.97;;;;;;;;;;5111822;28;20742;-77
2023/03/30 11:37:02;;;;;;;1.70;1.60;;;;;;;;;;5107425;28;20196;-77
2023/03/30 11:39:31;;;;;;;2.27;1.93;;;;;;;;;;5091329;28;20204;-77
2023/03/30 11:42:02;;;;;;;1.60;1.50;;;;;;;;;;5091332;28;20224;-77
2023/03/30 11:44:28;;;;;;;1.70;1.40;;;;;;;;;;5091719;28;20204;-77
2023/03/30 11:47:06;;;;;;;2.07;1.90;;;;;;;;;;5104928;28;20207;-77
2023/03/30 11:49:48;;;;;;;2.40;1.37;;;;;;;;;;5105308;28;20700;-77
2023/03/30 11:52:25;;;;;;;2.50;1.50;;;;;;;;;;5101872;28;20213;-77
2023/03/30 11:55:31;;;;;;;1.90;1.80;;;;;;;;;;5095215;28;20669;-77
2023/03/30 11:58:06;;;;;;;2.50;1.90;;;;;;;;;;5090818;28;20199;-77
2023/03/30 12:00:42;;;;;;;2.00;1.40;;;;;;;;;;5099617;28;20658;-77
2023/03/30 12:03:20;;;;;;;2.73;1.77;;;;;;;;;;5091188;28;20204;-78
2023/03/30 12:05:48;;;;;;;2.37;2.17;;;;;;;;;;5092588;28;20227;-77
2023/03/30 12:08:27;;;;;;;2.37;1.87;;;;;;;;;;5102831;28;20228;-77
2023/03/30 12:11:00;;;;;;;2.13;1.73;;;;;;;;;;5104148;28;20208;-77
2023/03/30 12:13:27;;;;;;;1.90;1.70;;;;;;;;;;5101522;28;20199;-77
2023/03/30 12:15:58;;;;;;;3.10;2.80;;;;;;;;;;5092522;28;20196;-77
2023/03/30 12:18:32;;;;;;;3.43;1.93;;;;;;;;;;5091258;28;20702;-77
2023/03/30 12:21:09;;;;;;;2.30;2.10;;;;;;;;;;5090166;28;20227;-77
2023/03/30 12:23:42;;;;;;;2.20;2.00;;;;;;;;;;5104666;28;20206;-77
2023/03/30 12:26:17;;;;;;;1.60;1.50;;;;;;;;;;5102162;28;20230;-77
2023/03/30 12:28:46;;;;;;;1.80;1.37;;;;;;;;;;5090145;28;20198;-77
2023/03/30 12:31:14;;;;;;;1.50;1.40;;;;;;;;;;5100674;28;20682;-77
2023/03/30 12:33:49;;;;;;;5.90;1.70;;;;;;;;;;5110716;28;20733;-78
2023/03/30 12:36:33;;;;;;;1.97;1.73;;;;;;;;;;5098999;28;20203;-77
2023/03/30 12:39:01;;;;;;;2.23;2.00;;;;;;;;;;5098457;28;20628;-77
2023/03/30 12:41:29;;;;;;;2.40;1.50;;;;;;;;;;5096790;28;20231;-77
2023/03/30 12:44:13;;;;;;;4.47;2.17;;;;;;;;;;5102379;28;20612;-78
2023/03/30 12:46:43;;;;;;;2.17;1.93;;;;;;;;;;5103444;28;20749;-77
2023/03/30 12:49:19;;;;;;;2.17;1.63;;;;;;;;;;5090608;28;20257;-78
2023/03/30 12:51:56;;;;;;;2.77;1.80;;;;;;;;;;5090519;28;20196;-78
2023/03/30 12:54:31;;;;;;;6.43;2.93;;;;;;;;;;5103851;28;20645;-81
2023/03/30 12:57:02;;;;;;;4.40;3.10;;;;;;;;;;5089975;28;20290;-79
2023/03/30 13:00:00;;;;;;;6.23;5.00;;;;;;;;;;5090094;28;20236;-77
2023/03/30 13:02:39;;;;;;;5.53;4.73;;;;;;;;;;5077416;28;20230;-77
2023/03/30 13:05:17;;;;;;;9.67;5.50;;;;;;;;;;5099586;28;20203;-77
2023/03/30 13:07:44;;;;;;;7.40;6.30;;;;;;;;;;5110158;28;20276;-77
2023/03/30 13:10:40;;;;;;;4.60;4.17;;;;;;;;;;5110720;28;20210;-77
2023/03/30 13:13:17;;;;;;;20.00;15.63;;;;;;;;;;5090650;28;20211;-77
2023/03/30 13:15:47;;;;;;;8.50;7.13;;;;;;;;;;5103724;28;20264;-77
2023/03/30 13:18:32;;;;;;;2.17;2.00;;;;;;;;;;5090156;28;20705;-77
2023/03/30 13:21:23;;;;;;;2.50;2.30;;;;;;;;;;5095371;28;20203;-77
2023/03/30 13:24:20;;;;;;;1.90;1.70;;;;;;;;;;5110257;28;20233;-77
2023/03/30 13:26:47;;;;;;;2.40;2.20;;;;;;;;;;5096943;28;20204;-77
2023/03/30 13:29:16;;;;;;;2.23;1.73;;;;;;;;;;5105667;28;20211;-77
2023/03/30 13:32:03;;;;;;;2.80;2.47;;;;;;;;;;5094714;28;20287;-77
2023/03/30 13:34:50;;;;;;;1.80;1.70;;;;;;;;;;5104062;28;20290;-77
2023/03/30 13:37:24;;;;;;;2.30;2.10;;;;;;;;;;5100295;28;20211;-77
2023/03/30 13:39:54;;;;;;;2.93;2.50;;;;;;;;;;5113891;28;20198;-77
2023/03/30 13:42:35;;;;;;;2.17;2.00;;;;;;;;;;5114023;28;20238;-77
2023/03/30 13:45:07;;;;;;;2.90;2.33;;;;;;;;;;5096162;28;20216;-77
2023/03/30 13:47:47;;;;;;;1.87;1.77;;;;;;;;;;5104900;28;20207;-77
2023/03/30 13:50:20;;;;;;;3.67;3.37;;;;;;;;;;5106364;28;20203;-77
2023/03/30 13:52:49;;;;;;;3.33;1.70;;;;;;;;;;5106925;28;20280;-77
2023/03/30 13:55:19;;;;;;;1.97;1.87;;;;;;;;;;5102018;28;20203;-77
2023/03/30 13:57:46;;;;;;;5.53;4.97;;;;;;;;;;5099507;28;20550;-77
2023/03/30 14:00:31;;;;;;;2.93;2.70;;;;;;;;;;5104337;28;20207;-77
2023/03/30 14:02:59;;;;;;;2.40;2.20;;;;;;;;;;5106427;28;20331;-77
2023/03/30 14:05:27;;;;;;;3.80;3.30;;;;;;;;;;5105348;28;20204;-77
2023/03/30 14:07:58;;;;;;;14.30;12.87;;;;;;;;;;5112981;28;20280;-77
2023/03/30 14:10:26;;;;;;;7.90;7.20;;;;;;;;;;5100532;28;20207;-77
2023/03/30 14:12:53;;;;;;;6.30;5.73;;;;;;;;;;5093280;28;20211;-77
2023/03/30 14:15:23;;;;;;;2.30;2.10;;;;;;;;;;5092830;28;20208;-77
2023/03/30 14:17:51;;;;;;;2.50;2.30;;;;;;;;;;5099173;28;20204;-78
2023/03/30 14:20:27;;;;;;;3.00;2.80;;;;;;;;;;5099040;28;20761;-78
2023/03/30 14:22:55;;;;;;;4.50;4.17;;;;;;;;;;5092449;28;20672;-78
2023/03/30 14:25:26;;;;;;;2.87;2.40;;;;;;;;;;5108353;28;20323;-78
2023/03/30 14:27:53;;;;;;;2.70;2.50;;;;;;;;;;5112996;28;20224;-77
2023/03/30 14:30:23;;;;;;;2.23;1.97;;;;;;;;;;5096085;28;20208;-78
2023/03/30 14:33:05;;;;;;;2.50;2.30;;;;;;;;;;5103217;28;20204;-77
2023/03/30 14:35:32;;;;;;;3.63;2.80;;;;;;;;;;5098638;28;20260;-77
2023/03/30 14:37:59;;;;;;;3.00;2.67;;;;;;;;;;5099808;28;20207;-77
2023/03/30 14:40:27;;;;;;;3.50;2.93;;;;;;;;;;5092063;28;20207;-77
2023/03/30 14:42:55;;;;;;;4.10;2.70;;;;;;;;;;5106140;28;20617;-77
2023/03/30 14:45:21;;;;;;;2.40;2.20;;;;;;;;;;5091863;28;20203;-77
2023/03/30 14:47:50;;;;;;;2.60;2.33;;;;;;;;;;5106033;28;20216;-77
2023/03/30 14:50:17;;;;;;;4.20;2.63;;;;;;;;;;5100167;28;20291;-77
2023/03/30 14:52:46;;;;;;;5.83;2.00;;;;;;;;;;5098111;28;20208;-77
2023/03/30 14:55:14;;;;;;;2.40;2.20;;;;;;;;;;5092388;28;20207;-77
2023/03/30 14:57:43;;;;;;;2.90;2.40;;;;;;;;;;5091894;28;20200;-77
2023/03/30 15:00:16;;;;;;;3.00;2.03;;;;;;;;;;5091964;28;20582;-78